sensor_id;sensor_type;location;lat;lon;timestamp;P1;durP1;ratioP1;P2;durP2;ratioP2
12623;SDS011;6377;42.836;23.998;2024-03-17T09:43:43;45.70;;;25.60;;
12623;SDS011;6377;42.836;23.998;2024-03-17T09:46:15;9.10;;;5.77;;
12623;SDS011;6377;42.836;23.998;2024-03-17T10:26:15;6.23;;;5.63;;
12623;SDS011;6377;42.836;23.998;2024-03-17T10:28:43;5.50;;;4.73;;
12623;SDS011;6377;42.836;23.998;2024-03-17T10:31:11;5.77;;;4.50;;
12623;SDS011;6377;42.836;23.998;2024-03-17T10:33:38;5.73;;;4.77;;
12623;SDS011;6377;42.836;23.998;2024-03-17T10:36:15;8.50;;;5.93;;
12623;SDS011;6377;42.836;23.998;2024-03-17T10:38:51;8.17;;;6.70;;
12623;SDS011;6377;42.836;23.998;2024-03-17T10:41:21;11.10;;;9.80;;
12623;SDS011;6377;42.836;23.998;2024-03-17T10:43:53;5.73;;;4.73;;
12623;SDS011;6377;42.836;23.998;2024-03-17T10:46:22;6.90;;;4.83;;
12623;SDS011;6377;42.836;23.998;2024-03-17T10:48:53;5.23;;;4.73;;
12623;SDS011;6377;42.836;23.998;2024-03-17T10:51:22;7.30;;;5.80;;
12623;SDS011;6377;42.836;23.998;2024-03-17T10:53:50;11.20;;;7.77;;
12623;SDS011;6377;42.836;23.998;2024-03-17T10:56:24;5.43;;;4.57;;
12623;SDS011;6377;42.836;23.998;2024-03-17T10:58:53;6.10;;;4.83;;
12623;SDS011;6377;42.836;23.998;2024-03-17T11:01:23;5.00;;;4.00;;
12623;SDS011;6377;42.836;23.998;2024-03-17T11:03:50;7.87;;;5.10;;
12623;SDS011;6377;42.836;23.998;2024-03-17T11:06:22;5.13;;;4.27;;
12623;SDS011;6377;42.836;23.998;2024-03-17T11:08:50;5.50;;;4.37;;
12623;SDS011;6377;42.836;23.998;2024-03-17T11:14:16;5.73;;;4.83;;
12623;SDS011;6377;42.836;23.998;2024-03-17T11:16:45;5.25;;;4.18;;
12623;SDS011;6377;42.836;23.998;2024-03-17T11:32:31;4.30;;;3.90;;
12623;SDS011;6377;42.836;23.998;2024-03-17T11:35:16;7.67;;;5.17;;
12623;SDS011;6377;42.836;23.998;2024-03-17T12:38:49;18.23;;;13.67;;
12623;SDS011;6377;42.836;23.998;2024-03-17T12:41:22;10.40;;;8.87;;
12623;SDS011;6377;42.836;23.998;2024-03-17T12:43:50;7.90;;;6.83;;
12623;SDS011;6377;42.836;23.998;2024-03-17T12:46:22;6.60;;;5.60;;
12623;SDS011;6377;42.836;23.998;2024-03-17T12:58:18;11.77;;;8.03;;
12623;SDS011;6377;42.836;23.998;2024-03-17T13:01:05;13.87;;;10.30;;
12623;SDS011;6377;42.836;23.998;2024-03-17T13:03:34;8.87;;;6.13;;
12623;SDS011;6377;42.836;23.998;2024-03-17T13:09:27;13.47;;;8.47;;
12623;SDS011;6377;42.836;23.998;2024-03-17T13:11:59;13.07;;;10.40;;
12623;SDS011;6377;42.836;23.998;2024-03-17T13:14:31;4.30;;;3.70;;
12623;SDS011;6377;42.836;23.998;2024-03-17T13:17:33;16.00;;;9.23;;
12623;SDS011;6377;42.836;23.998;2024-03-17T13:20:02;9.20;;;6.43;;
12623;SDS011;6377;42.836;23.998;2024-03-17T13:22:34;6.23;;;4.43;;
12623;SDS011;6377;42.836;23.998;2024-03-17T13:25:12;5.10;;;4.10;;
12623;SDS011;6377;42.836;23.998;2024-03-17T13:31:39;6.23;;;4.90;;
12623;SDS011;6377;42.836;23.998;2024-03-17T13:34:08;8.50;;;6.20;;
12623;SDS011;6377;42.836;23.998;2024-03-17T14:10:34;4.33;;;3.80;;
12623;SDS011;6377;42.836;23.998;2024-03-17T14:41:34;10.10;;;7.10;;
12623;SDS011;6377;42.836;23.998;2024-03-17T14:44:08;18.90;;;10.40;;
12623;SDS011;6377;42.836;23.998;2024-03-17T14:49:34;9.97;;;7.33;;
12623;SDS011;6377;42.836;23.998;2024-03-17T14:56:02;9.20;;;6.63;;
12623;SDS011;6377;42.836;23.998;2024-03-17T14:58:50;13.27;;;10.70;;
12623;SDS011;6377;42.836;23.998;2024-03-17T23:13:44;19.57;;;11.83;;
12623;SDS011;6377;42.836;23.998;2024-03-17T23:16:13;63.37;;;30.73;;
12623;SDS011;6377;42.836;23.998;2024-03-17T23:18:40;45.53;;;26.20;;
12623;SDS011;6377;42.836;23.998;2024-03-17T23:21:08;55.90;;;30.33;;
12623;SDS011;6377;42.836;23.998;2024-03-17T23:23:35;121.70;;;52.90;;
12623;SDS011;6377;42.836;23.998;2024-03-17T23:26:02;53.13;;;25.90;;
12623;SDS011;6377;42.836;23.998;2024-03-17T23:28:30;115.60;;;47.77;;
12623;SDS011;6377;42.836;23.998;2024-03-17T23:30:58;75.63;;;36.07;;
12623;SDS011;6377;42.836;23.998;2024-03-17T23:33:25;72.90;;;32.63;;
12623;SDS011;6377;42.836;23.998;2024-03-17T23:35:52;54.97;;;26.27;;
12623;SDS011;6377;42.836;23.998;2024-03-17T23:38:20;50.10;;;25.63;;
12623;SDS011;6377;42.836;23.998;2024-03-17T23:40:47;46.83;;;23.17;;
12623;SDS011;6377;42.836;23.998;2024-03-17T23:43:14;67.77;;;27.03;;
12623;SDS011;6377;42.836;23.998;2024-03-17T23:45:41;71.07;;;25.20;;
12623;SDS011;6377;42.836;23.998;2024-03-17T23:48:10;49.37;;;22.80;;
12623;SDS011;6377;42.836;23.998;2024-03-17T23:50:37;42.40;;;21.30;;
12623;SDS011;6377;42.836;23.998;2024-03-17T23:53:04;35.60;;;20.47;;
12623;SDS011;6377;42.836;23.998;2024-03-17T23:55:31;33.60;;;18.60;;
12623;SDS011;6377;42.836;23.998;2024-03-17T23:57:59;24.63;;;15.97;;
